createdAt,value
2022-11-07T00:00:36.969Z,29.25
2022-11-07T00:02:59.644Z,30.40
2022-11-07T00:05:22.359Z,28.20
2022-11-07T00:07:44.830Z,30.38
2022-11-07T00:10:07.683Z,27.58
2022-11-07T00:12:30.375Z,32.13
2022-11-07T00:14:52.895Z,27.35
2022-11-07T00:17:15.446Z,28.20
2022-11-07T00:19:38.008Z,27.23
2022-11-07T00:22:00.687Z,27.63
2022-11-07T00:24:23.198Z,26.38
2022-11-07T00:26:47.197Z,29.58
2022-11-07T00:29:17.823Z,27.00
2022-11-07T00:31:40.637Z,27.60
2022-11-07T00:34:03.199Z,25.33
2022-11-07T00:36:28.282Z,27.08
2022-11-07T00:38:51.334Z,28.52
2022-11-07T00:41:14.153Z,27.45
2022-11-07T00:43:36.724Z,28.70
2022-11-07T00:46:01.991Z,30.67
2022-11-07T00:48:24.530Z,28.85
2022-11-07T00:50:47.553Z,26.77
2022-11-07T00:53:10.155Z,28.08
2022-11-07T00:55:33.350Z,27.85
2022-11-07T01:00:32.555Z,28.58
2022-11-07T01:03:14.267Z,27.55
2022-11-07T01:05:37.504Z,28.10
2022-11-07T01:08:00.117Z,27.85
2022-11-07T01:10:22.641Z,27.70
2022-11-07T01:12:45.126Z,24.45
2022-11-07T01:15:08.154Z,29.75
2022-11-07T01:17:30.777Z,25.13
2022-11-07T01:19:53.795Z,24.75
2022-11-07T01:22:16.319Z,26.20
2022-11-07T01:24:38.987Z,24.05
2022-11-07T01:27:01.550Z,25.45
2022-11-07T01:29:24.303Z,26.23
2022-11-07T01:31:47.183Z,26.27
2022-11-07T01:34:09.819Z,28.05
2022-11-07T01:36:33.113Z,28.85
2022-11-07T01:38:55.667Z,27.52
2022-11-07T01:41:27.255Z,29.77
2022-11-07T01:44:14.806Z,29.60
2022-11-07T01:46:40.075Z,26.92
2022-11-07T01:49:09.624Z,29.33
2022-11-07T01:51:37.478Z,28.75
2022-11-07T01:54:01.131Z,30.50
2022-11-07T01:56:27.575Z,31.58
2022-11-07T01:58:50.708Z,34.10
2022-11-07T02:01:14.381Z,30.20
2022-11-07T02:03:37.125Z,31.60
2022-11-07T02:06:05.310Z,26.80
2022-11-07T02:08:32.455Z,26.10
2022-11-07T02:10:56.763Z,27.48
2022-11-07T02:13:30.748Z,24.67
2022-11-07T02:15:53.681Z,28.17
2022-11-07T02:18:16.424Z,25.60
2022-11-07T02:20:39.206Z,27.17
2022-11-07T02:23:08.597Z,26.10
2022-11-07T02:25:31.192Z,26.95
2022-11-07T02:27:58.490Z,24.00
2022-11-07T02:30:25.846Z,26.25
2022-11-07T02:32:48.409Z,25.63
2022-11-07T02:35:29.423Z,26.20
2022-11-07T02:37:52.972Z,27.80
2022-11-07T02:40:15.788Z,27.77
2022-11-07T02:42:45.741Z,26.83
2022-11-07T02:45:08.656Z,26.00
2022-11-07T02:47:31.224Z,29.27
2022-11-07T02:49:53.740Z,26.85
2022-11-07T02:52:16.295Z,26.10
2022-11-07T02:54:38.786Z,29.30
2022-11-07T02:57:01.548Z,29.25
2022-11-07T02:59:27.213Z,28.15
2022-11-07T03:01:49.960Z,27.63
2022-11-07T03:04:12.747Z,28.88
2022-11-07T03:06:35.428Z,27.67
2022-11-07T03:08:58.131Z,31.52
2022-11-07T03:11:20.719Z,28.88
2022-11-07T03:13:43.204Z,26.67
2022-11-07T03:16:08.659Z,26.38
2022-11-07T03:18:31.109Z,29.05
2022-11-07T03:20:53.699Z,25.70
2022-11-07T03:23:16.569Z,26.85
2022-11-07T03:25:39.586Z,30.23
2022-11-07T03:28:02.394Z,28.92
2022-11-07T03:30:25.263Z,27.88
2022-11-07T03:32:47.903Z,30.17
2022-11-07T03:35:10.700Z,29.30
2022-11-07T03:37:33.313Z,30.60
2022-11-07T03:39:55.913Z,30.55
2022-11-07T03:42:18.346Z,27.70
2022-11-07T03:44:40.928Z,27.75
2022-11-07T03:47:03.379Z,29.08
2022-11-07T03:49:25.950Z,28.23
2022-11-07T03:51:48.509Z,30.50
2022-11-07T03:54:11.158Z,30.23
2022-11-07T03:56:33.702Z,31.30
2022-11-07T03:58:56.644Z,26.73
2022-11-07T04:01:19.145Z,29.38
2022-11-07T04:03:41.795Z,31.00
2022-11-07T04:06:04.498Z,28.00
2022-11-07T04:08:27.188Z,26.60
2022-11-07T04:10:49.741Z,27.75
2022-11-07T04:13:30.846Z,27.00
2022-11-07T04:16:29.041Z,27.35
2022-11-07T04:18:51.677Z,28.67
2022-11-07T04:21:14.489Z,28.48
2022-11-07T04:23:37.356Z,31.97
2022-11-07T04:26:18.322Z,30.60
2022-11-07T04:28:40.829Z,30.70
2022-11-07T04:31:03.721Z,34.92
2022-11-07T04:33:26.226Z,34.47
2022-11-07T04:35:48.716Z,36.72
2022-11-07T04:38:11.262Z,36.92
2022-11-07T04:40:35.539Z,37.70
2022-11-07T04:42:58.415Z,31.83
2022-11-07T04:45:20.946Z,33.97
2022-11-07T04:47:43.750Z,39.58
2022-11-07T04:50:09.194Z,40.60
2022-11-07T04:52:32.101Z,40.78
2022-11-07T04:54:54.627Z,41.42
2022-11-07T04:57:17.291Z,38.65
2022-11-07T04:59:39.819Z,38.65
2022-11-07T05:02:06.324Z,41.47
2022-11-07T05:04:28.989Z,43.08
2022-11-07T05:06:51.468Z,44.53
2022-11-07T05:09:17.955Z,43.72
2022-11-07T05:11:40.442Z,44.15
2022-11-07T05:14:02.955Z,45.58
2022-11-07T05:16:25.741Z,44.20
2022-11-07T05:18:48.242Z,44.70
2022-11-07T05:21:11.388Z,45.08
2022-11-07T05:23:33.858Z,43.08
2022-11-07T05:25:56.894Z,44.28
2022-11-07T05:28:23.914Z,47.67
2022-11-07T05:30:52.787Z,42.15
2022-11-07T05:33:18.485Z,45.08
2022-11-07T05:35:41.942Z,48.30
2022-11-07T05:38:05.060Z,50.45
2022-11-07T05:40:27.730Z,50.92
2022-11-07T05:42:50.239Z,47.70
2022-11-07T05:45:12.815Z,50.42
2022-11-07T05:47:35.723Z,53.92
2022-11-07T05:49:59.498Z,59.50
2022-11-07T05:52:21.928Z,53.78
2022-11-07T05:54:44.501Z,55.35
2022-11-07T05:57:06.960Z,52.70
2022-11-07T05:59:29.555Z,51.50
2022-11-07T06:01:53.377Z,48.05
2022-11-07T06:04:16.055Z,47.22
2022-11-07T06:06:38.642Z,50.65
2022-11-07T06:09:01.229Z,47.58
2022-11-07T06:11:23.776Z,44.50
2022-11-07T06:13:46.504Z,47.80
2022-11-07T06:16:09.071Z,48.28
2022-11-07T06:18:31.896Z,41.53
2022-11-07T06:20:54.479Z,42.83
2022-11-07T06:23:17.818Z,44.72
2022-11-07T06:25:41.102Z,41.30
2022-11-07T06:28:06.276Z,40.88
2022-11-07T06:30:29.491Z,38.83
2022-11-07T06:32:52.246Z,45.28
2022-11-07T06:35:15.305Z,41.17
2022-11-07T06:37:38.624Z,38.85
2022-11-07T06:40:01.330Z,38.30
2022-11-07T06:42:26.560Z,35.00
2022-11-07T06:44:49.460Z,33.28
2022-11-07T06:47:13.172Z,29.95
2022-11-07T06:49:35.913Z,30.38
2022-11-07T06:51:58.920Z,27.60
2022-11-07T06:54:21.691Z,30.60
2022-11-07T06:56:44.397Z,30.45
2022-11-07T06:59:07.149Z,27.65
2022-11-07T07:01:30.187Z,29.58
2022-11-07T07:03:53.374Z,30.40
2022-11-07T07:06:17.312Z,30.52
2022-11-07T07:08:40.207Z,27.00
2022-11-07T07:11:05.472Z,30.30
2022-11-07T07:13:29.485Z,30.45
2022-11-07T07:15:54.016Z,29.90
2022-11-07T07:18:16.703Z,34.15
2022-11-07T07:20:40.075Z,30.88
2022-11-07T07:23:05.693Z,31.42
2022-11-07T07:25:28.605Z,29.02
2022-11-07T07:27:51.397Z,36.45
2022-11-07T07:30:15.100Z,31.02
2022-11-07T07:32:38.389Z,31.25
2022-11-07T07:35:01.185Z,31.65
2022-11-07T07:37:24.775Z,29.50
2022-11-07T07:39:47.691Z,32.78
2022-11-07T07:42:10.379Z,29.63
2022-11-07T07:44:32.968Z,32.83
2022-11-07T07:46:55.591Z,34.72
2022-11-07T07:49:18.293Z,34.13
2022-11-07T07:51:41.066Z,32.70
2022-11-07T07:54:03.815Z,35.15
2022-11-07T07:56:27.233Z,34.60
2022-11-07T07:58:50.210Z,35.42
2022-11-07T08:01:13.149Z,33.17
2022-11-07T08:03:59.658Z,36.30
2022-11-07T08:06:19.520Z,33.85
2022-11-07T08:08:42.011Z,29.00
2022-11-07T08:11:07.854Z,27.45
2022-11-07T08:13:30.764Z,28.10
2022-11-07T08:15:53.816Z,29.30
2022-11-07T08:18:16.659Z,30.70
2022-11-07T08:20:39.558Z,29.73
2022-11-07T08:23:04.416Z,28.45
2022-11-07T08:25:27.129Z,33.45
2022-11-07T08:27:50.036Z,33.70
2022-11-07T08:30:17.754Z,34.33
2022-11-07T08:32:40.768Z,29.52
2022-11-07T08:35:03.635Z,29.65
2022-11-07T08:37:26.675Z,27.27
2022-11-07T08:39:49.740Z,27.38
2022-11-07T08:42:12.887Z,28.45
2022-11-07T08:44:36.783Z,28.27
2022-11-07T08:47:02.090Z,29.13
2022-11-07T08:49:27.246Z,29.02
2022-11-07T08:51:50.693Z,26.73
2022-11-07T08:54:13.650Z,28.60
2022-11-07T08:56:36.371Z,37.28
2022-11-07T08:58:59.147Z,29.30
2022-11-07T09:01:22.271Z,28.25
2022-11-07T09:03:50.321Z,28.98
2022-11-07T09:06:19.002Z,35.15
2022-11-07T09:08:41.739Z,29.85
2022-11-07T09:11:08.678Z,31.27
2022-11-07T09:13:32.928Z,29.10
2022-11-07T09:15:59.677Z,26.55
2022-11-07T09:18:22.865Z,26.05
2022-11-07T09:20:45.712Z,26.77
2022-11-07T09:23:09.391Z,26.65
2022-11-07T09:25:32.105Z,28.77
2022-11-07T09:30:32.832Z,28.00
2022-11-07T09:32:56.472Z,24.30
2022-11-07T09:35:19.445Z,28.67
2022-11-07T09:37:42.486Z,23.70
2022-11-07T09:40:06.921Z,25.90
2022-11-07T09:42:50.838Z,25.08
2022-11-07T09:45:14.112Z,21.77
2022-11-07T09:47:40.475Z,23.10
2022-11-07T09:50:22.851Z,23.25
2022-11-07T09:52:48.347Z,25.50
2022-11-07T09:55:47.955Z,32.35
2022-11-07T09:58:21.164Z,22.45
2022-11-07T10:00:43.796Z,21.67
2022-11-07T10:03:09.401Z,25.40
2022-11-07T10:05:54.405Z,24.42
2022-11-07T10:08:27.229Z,24.85
2022-11-07T10:10:57.772Z,28.95
2022-11-07T10:13:35.108Z,26.40
2022-11-07T10:16:18.156Z,23.63
2022-11-07T10:18:54.675Z,24.35
2022-11-07T10:21:43.286Z,26.83
2022-11-07T10:24:13.714Z,22.60
2022-11-07T10:26:37.126Z,21.55
2022-11-07T10:29:10.966Z,24.38
2022-11-07T10:31:41.522Z,25.45
2022-11-07T10:34:31.696Z,22.98
2022-11-07T10:36:54.474Z,21.25
2022-11-07T10:39:19.697Z,22.25
2022-11-07T10:41:48.081Z,21.27
2022-11-07T10:46:51.583Z,19.48
2022-11-07T10:49:31.336Z,21.00
2022-11-07T10:51:55.466Z,20.88
2022-11-07T10:54:31.410Z,24.02
2022-11-07T10:57:06.010Z,23.20
2022-11-07T10:59:35.788Z,23.55
2022-11-07T11:02:01.098Z,20.40
2022-11-07T11:04:24.788Z,19.35
2022-11-07T11:06:56.982Z,17.50
2022-11-07T11:09:20.201Z,17.65
2022-11-07T11:11:45.504Z,19.23
2022-11-07T11:14:15.896Z,16.08
2022-11-07T11:16:40.737Z,20.20
2022-11-07T11:19:04.784Z,17.80
2022-11-07T11:21:39.189Z,21.00
2022-11-07T11:24:12.615Z,19.95
2022-11-07T11:26:37.717Z,16.92
2022-11-07T11:29:11.029Z,17.50
2022-11-07T11:31:37.192Z,19.35
2022-11-07T11:34:22.281Z,17.88
2022-11-07T11:37:18.606Z,17.17
2022-11-07T11:39:51.275Z,17.40
2022-11-07T11:42:34.468Z,16.52
2022-11-07T11:45:03.877Z,17.25
2022-11-07T11:47:41.253Z,16.35
2022-11-07T11:50:13.651Z,16.15
2022-11-07T11:52:36.351Z,13.05
2022-11-07T11:55:00.571Z,13.93
2022-11-07T11:57:28.151Z,11.75
2022-11-07T12:00:21.062Z,14.80
2022-11-07T12:03:16.633Z,12.63
2022-11-07T12:05:51.420Z,11.85
2022-11-07T12:08:41.654Z,14.23
2022-11-07T12:11:29.066Z,11.98
2022-11-07T12:13:58.615Z,10.20
2022-11-07T12:16:39.226Z,9.13
2022-11-07T12:19:04.686Z,7.25
2022-11-07T12:21:51.153Z,10.10
2022-11-07T12:24:32.781Z,9.63
2022-11-07T12:27:27.075Z,8.45
2022-11-07T12:30:03.075Z,7.20
2022-11-07T12:32:43.453Z,8.32
2022-11-07T12:35:44.437Z,5.82
2022-11-07T12:38:15.955Z,5.63
2022-11-07T12:40:57.398Z,6.03
2022-11-07T12:43:23.093Z,5.82
2022-11-07T12:45:53.707Z,6.45
2022-11-07T12:48:19.571Z,7.65
2022-11-07T12:50:53.458Z,5.88
2022-11-07T12:53:25.342Z,5.25
2022-11-07T12:55:52.382Z,5.20
2022-11-07T12:58:20.903Z,6.75
2022-11-07T13:00:44.817Z,6.78
2022-11-07T13:03:22.682Z,4.80
2022-11-07T13:05:51.202Z,4.68
2022-11-07T13:08:25.090Z,6.57
2022-11-07T13:11:05.029Z,4.80
2022-11-07T13:13:32.286Z,4.85
2022-11-07T13:16:14.643Z,4.85
2022-11-07T13:18:37.987Z,8.38
2022-11-07T13:21:06.046Z,9.15
2022-11-07T13:23:29.936Z,5.80
2022-11-07T13:26:32.411Z,4.88
2022-11-07T13:28:58.972Z,5.20
2022-11-07T13:31:36.830Z,5.50
2022-11-07T13:34:18.469Z,4.88
2022-11-07T13:36:41.123Z,5.40
2022-11-07T13:39:07.200Z,5.32
2022-11-07T13:41:31.812Z,5.15
2022-11-07T13:43:59.163Z,7.53
2022-11-07T13:46:29.879Z,6.78
2022-11-07T13:49:06.872Z,4.80
2022-11-07T13:51:37.430Z,7.90
2022-11-07T13:54:09.120Z,4.63
2022-11-07T13:56:50.591Z,6.10
2022-11-07T13:59:43.371Z,5.40
2022-11-07T14:02:06.578Z,5.07
2022-11-07T14:04:29.704Z,4.45
2022-11-07T14:06:57.227Z,4.43
2022-11-07T14:09:21.213Z,5.30
2022-11-07T14:11:44.910Z,5.25
2022-11-07T14:14:09.284Z,7.63
2022-11-07T14:16:31.897Z,6.60
2022-11-07T14:19:06.520Z,5.05
2022-11-07T14:21:32.064Z,4.43
2022-11-07T14:23:54.931Z,6.05
2022-11-07T14:26:28.109Z,6.13
2022-11-07T14:28:51.561Z,5.00
2022-11-07T14:31:36.161Z,6.97
2022-11-07T14:34:06.050Z,5.68
2022-11-07T14:36:30.535Z,4.95
2022-11-07T14:39:02.986Z,5.65
2022-11-07T14:41:25.830Z,4.88
2022-11-07T14:43:49.819Z,6.75
2022-11-07T14:46:19.078Z,9.13
2022-11-07T14:48:43.105Z,6.45
2022-11-07T14:51:06.053Z,6.13
2022-11-07T14:53:38.850Z,6.00
2022-11-07T14:56:06.884Z,5.32
2022-11-07T14:58:30.472Z,5.60
2022-11-07T15:01:12.661Z,7.60
2022-11-07T15:03:51.780Z,5.28
2022-11-07T15:06:24.737Z,6.70
2022-11-07T15:08:56.851Z,5.95
2022-11-07T15:11:25.402Z,5.32
2022-11-07T15:13:48.538Z,6.35
2022-11-07T15:16:22.749Z,7.78
2022-11-07T15:18:48.624Z,5.38
2022-11-07T15:21:38.962Z,5.32
2022-11-07T15:24:24.517Z,8.32
2022-11-07T15:27:05.666Z,7.60
2022-11-07T15:29:33.767Z,8.75
2022-11-07T15:31:57.298Z,8.00
2022-11-07T15:34:33.906Z,7.32
2022-11-07T15:37:09.437Z,7.28
2022-11-07T15:39:32.122Z,8.27
2022-11-07T15:41:54.574Z,7.65
2022-11-07T15:44:17.473Z,8.07
2022-11-07T15:46:40.400Z,9.20
2022-11-07T15:49:03.470Z,7.10
2022-11-07T15:51:26.157Z,8.30
2022-11-07T15:53:48.909Z,7.53
2022-11-07T15:56:15.449Z,8.10
2022-11-07T15:58:38.102Z,7.47
2022-11-07T16:01:01.011Z,10.48
2022-11-07T16:03:25.424Z,13.02
2022-11-07T16:05:49.980Z,8.88
2022-11-07T16:08:17.784Z,7.63
2022-11-07T16:10:44.114Z,10.82
2022-11-07T16:13:09.236Z,8.40
2022-11-07T16:15:33.354Z,7.13
2022-11-07T16:17:56.331Z,8.07
2022-11-07T16:20:22.116Z,8.55
2022-11-07T16:22:45.840Z,8.98
2022-11-07T16:25:18.609Z,8.05
2022-11-07T16:27:49.148Z,9.13
2022-11-07T16:30:14.815Z,8.15
2022-11-07T16:32:37.490Z,9.52
2022-11-07T16:35:00.255Z,9.65
2022-11-07T16:37:22.933Z,9.60
2022-11-07T16:39:45.651Z,8.85
2022-11-07T16:42:14.293Z,8.90
2022-11-07T16:44:36.973Z,7.80
2022-11-07T16:47:00.353Z,11.15
2022-11-07T16:49:31.363Z,8.23
2022-11-07T16:51:53.968Z,10.45
2022-11-07T16:54:16.745Z,10.23
2022-11-07T16:56:40.641Z,8.43
2022-11-07T16:59:06.188Z,8.73
2022-11-07T17:01:29.058Z,10.25
2022-11-07T17:03:52.330Z,9.48
2022-11-07T17:06:19.352Z,9.23
2022-11-07T17:08:42.115Z,13.00
2022-11-07T17:11:05.815Z,10.57
2022-11-07T17:13:28.573Z,10.20
2022-11-07T17:15:51.768Z,10.52
2022-11-07T17:18:19.351Z,10.40
2022-11-07T17:20:50.919Z,12.57
2022-11-07T17:23:15.566Z,10.05
2022-11-07T17:25:39.303Z,13.02
2022-11-07T17:28:02.118Z,12.15
2022-11-07T17:30:24.792Z,13.30
2022-11-07T17:32:47.356Z,12.57
2022-11-07T17:35:30.995Z,16.65
2022-11-07T17:37:52.954Z,15.50
2022-11-07T17:40:24.749Z,16.13
2022-11-07T17:42:47.753Z,14.63
2022-11-07T17:45:15.578Z,16.40
2022-11-07T17:47:39.645Z,17.90
2022-11-07T17:50:03.677Z,17.70
2022-11-07T17:52:27.784Z,19.20
2022-11-07T17:54:50.369Z,18.25
2022-11-07T17:57:13.071Z,19.65
2022-11-07T17:59:35.846Z,20.73
2022-11-07T18:01:58.996Z,19.17
2022-11-07T18:04:21.888Z,18.85
2022-11-07T18:06:44.937Z,19.60
2022-11-07T18:09:11.594Z,23.35
2022-11-07T18:11:35.355Z,20.05
2022-11-07T18:13:59.320Z,22.45
2022-11-07T18:16:25.451Z,26.70
2022-11-07T18:18:48.425Z,31.13
2022-11-07T18:21:11.690Z,42.57
2022-11-07T18:23:35.031Z,43.08
2022-11-07T18:26:09.712Z,40.97
2022-11-07T18:28:34.650Z,40.72
2022-11-07T18:31:02.667Z,38.58
2022-11-07T18:33:25.551Z,38.63
2022-11-07T18:35:48.450Z,41.22
2022-11-07T18:38:11.277Z,39.75
2022-11-07T18:40:34.250Z,37.00
2022-11-07T18:42:56.872Z,35.22
2022-11-07T18:45:20.335Z,39.60
2022-11-07T18:47:43.315Z,37.05
2022-11-07T18:50:06.584Z,41.35
2022-11-07T18:52:31.487Z,40.17
2022-11-07T18:54:54.394Z,45.13
2022-11-07T18:57:17.221Z,43.87
2022-11-07T18:59:39.980Z,45.53
2022-11-07T19:02:03.204Z,47.47
2022-11-07T19:04:26.065Z,37.53
2022-11-07T19:06:57.967Z,34.08
2022-11-07T19:09:25.930Z,34.42
2022-11-07T19:11:49.152Z,39.05
2022-11-07T19:14:15.133Z,38.92
2022-11-07T19:16:37.767Z,37.13
2022-11-07T19:19:00.789Z,36.53
2022-11-07T19:21:23.630Z,42.90
2022-11-07T19:23:48.168Z,40.95
2022-11-07T19:26:12.505Z,41.40
2022-11-07T19:28:37.438Z,41.38
2022-11-07T19:31:04.854Z,41.20
2022-11-07T19:33:27.718Z,36.53
2022-11-07T19:35:59.547Z,39.00
2022-11-07T19:38:22.539Z,35.20
2022-11-07T19:40:48.724Z,30.90
2022-11-07T19:43:12.082Z,32.05
2022-11-07T19:45:39.985Z,30.07
2022-11-07T19:48:02.961Z,26.80
2022-11-07T19:50:25.898Z,27.85
2022-11-07T19:52:49.365Z,27.15
2022-11-07T19:55:12.319Z,25.75
2022-11-07T19:57:35.317Z,25.93
2022-11-07T20:00:02.113Z,24.50
2022-11-07T20:02:40.107Z,24.45
2022-11-07T20:05:07.361Z,22.63
2022-11-07T20:07:30.164Z,23.33
2022-11-07T20:09:54.865Z,24.60
2022-11-07T20:12:17.885Z,23.13
2022-11-07T20:14:40.441Z,29.17
2022-11-07T20:17:03.259Z,25.75
2022-11-07T20:19:28.545Z,27.02
2022-11-07T20:21:52.518Z,45.33
2022-11-07T20:24:15.562Z,64.70
2022-11-07T20:26:38.748Z,42.25
2022-11-07T20:29:02.203Z,32.25
2022-11-07T20:31:43.908Z,29.25
2022-11-07T20:34:08.641Z,33.93
2022-11-07T20:36:32.123Z,37.95
2022-11-07T20:38:55.839Z,41.50
2022-11-07T20:41:18.669Z,58.55
2022-11-07T20:43:43.780Z,56.30
2022-11-07T20:46:13.386Z,49.87
2022-11-07T20:48:37.041Z,44.58
2022-11-07T20:51:09.027Z,45.33
2022-11-07T20:53:32.302Z,42.35
2022-11-07T20:55:55.150Z,43.17
2022-11-07T20:58:19.212Z,49.47
2022-11-07T21:00:42.631Z,59.30
2022-11-07T21:03:06.151Z,79.97
2022-11-07T21:05:29.475Z,97.85
2022-11-07T21:07:52.433Z,106.93
2022-11-07T21:10:15.478Z,99.10
2022-11-07T21:12:38.185Z,92.15
2022-11-07T21:15:01.014Z,94.75
2022-11-07T21:17:23.722Z,97.80
2022-11-07T21:19:46.555Z,96.80
2022-11-07T21:22:09.386Z,100.17
2022-11-07T21:24:32.322Z,99.95
2022-11-07T21:26:54.906Z,108.43
2022-11-07T21:29:17.757Z,121.97
2022-11-07T21:31:41.301Z,107.78
2022-11-07T21:34:06.388Z,98.93
2022-11-07T21:36:30.959Z,95.85
2022-11-07T21:38:54.631Z,91.80
2022-11-07T21:41:17.373Z,92.80
2022-11-07T21:43:40.802Z,89.88
2022-11-07T21:46:16.834Z,82.03
2022-11-07T21:48:40.121Z,79.45
2022-11-07T21:51:16.971Z,94.93
2022-11-07T21:53:39.997Z,144.82
2022-11-07T21:56:02.542Z,131.00
2022-11-07T21:58:25.056Z,122.13
2022-11-07T22:00:47.613Z,103.72
2022-11-07T22:03:10.405Z,99.63
2022-11-07T22:05:32.891Z,94.93
2022-11-07T22:10:31.844Z,68.47
2022-11-07T22:12:54.356Z,74.10
2022-11-07T22:15:16.923Z,72.43
2022-11-07T22:17:39.420Z,61.88
2022-11-07T22:20:03.184Z,66.78
2022-11-07T22:22:25.768Z,66.57
2022-11-07T22:24:48.321Z,63.38
2022-11-07T22:27:10.954Z,55.78
2022-11-07T22:29:34.348Z,54.97
2022-11-07T22:31:56.985Z,61.80
2022-11-07T22:34:19.658Z,57.23
2022-11-07T22:36:42.340Z,57.97
2022-11-07T22:39:05.174Z,61.10
2022-11-07T22:41:29.256Z,58.95
2022-11-07T22:43:53.074Z,56.28
2022-11-07T22:46:18.732Z,54.80
2022-11-07T22:48:42.245Z,52.30
2022-11-07T22:51:07.383Z,52.85
2022-11-07T22:53:29.988Z,50.92
2022-11-07T22:55:52.430Z,53.03
2022-11-07T22:58:15.347Z,50.97
2022-11-07T23:00:38.135Z,50.75
2022-11-07T23:03:00.713Z,50.65
2022-11-07T23:05:23.373Z,47.70
2022-11-07T23:07:49.627Z,50.65
2022-11-07T23:10:12.228Z,47.13
2022-11-07T23:12:35.587Z,50.58
2022-11-07T23:14:58.033Z,49.65
2022-11-07T23:17:20.597Z,44.10
2022-11-07T23:19:43.389Z,50.97
2022-11-07T23:22:06.170Z,47.73
2022-11-07T23:24:28.831Z,50.10
2022-11-07T23:26:51.452Z,53.63
2022-11-07T23:29:16.736Z,56.25
2022-11-07T23:31:40.565Z,45.97
2022-11-07T23:34:03.220Z,51.33
2022-11-07T23:36:26.043Z,49.85
2022-11-07T23:38:48.765Z,46.45
2022-11-07T23:41:13.447Z,46.03
2022-11-07T23:43:36.035Z,46.63
2022-11-07T23:46:18.100Z,40.23
2022-11-07T23:48:59.434Z,40.80
2022-11-07T23:51:23.039Z,39.00
2022-11-07T23:54:03.858Z,40.22
2022-11-07T23:56:28.582Z,38.55
2022-11-07T23:59:10.438Z,40.23
